Tropical Cyclones
[Index]
Main Index Home Page Stock Weather Photos Extreme Storms Discussion Storm News and Storm Chasing Reports Tropical Cyclones / Hurricanes / Typhoons Weather Data and Links Wild Fires / Bushfires Weather Observation Techniques Weather Picture Catalogue Tornado Pictures and Reports Stock Video Footage and DVDs for sale
Season 1986-1987 Tropical Cyclone ELSIE Track Map
Season 1986-1987 Summaries: [BoM-AU] [JTWC-AU] [JTWC-SIO] [JTWC-SPAC] [JTWC-SH]
<<- Previous TC | BoM 1986-1987 Season | Next TC ->>

click for intensity scale information  Lat/long Grid: Show Hide

 Date Labels: Show Hide

Bureau of Meteorology Tropical Cyclone Data

Name: ELSIE
Number: 699 / 198687_05

22 Feb 1987 00:00 UTC to 27 Feb 1987 06:00 UTC

    date/time    lat    long    hPa   cat  kts
1987-02-22 00   15.0   125.0    995    1    35          
1987-02-22 03   15.0   124.5    994    1    35          
1987-02-22 06   15.1   123.8    993    1    37          
1987-02-22 09   15.3   123.5    990    1    41          
1987-02-22 12   15.4   123.2    986    1    47          
1987-02-22 15   15.6   123.0    981    2    52          
1987-02-22 18   15.7   122.8    980    2    54          
1987-02-22 21   15.5   122.5    979    2    54          
1987-02-23 00   15.4   122.3    978    2    56          
1987-02-23 03   15.2   122.1    977    2    56          
1987-02-23 06   15.0   122.0    976    2    58          
1987-02-23 09   15.2   121.8    966    3    70          
1987-02-23 12   15.4   121.7    964    3    72          
1987-02-23 15   15.5   121.5    960    3    76          
1987-02-23 18   15.8   121.5    957    3    78          
1987-02-23 21   16.2   121.5    954    4    82          
1987-02-24 00   16.3   121.5    953    4    82          
1987-02-24 03   16.5   121.5    952    4    84          
1987-02-24 06   16.7   121.5    951    4    84          
1987-02-24 09   17.1   121.5    950    4    84          
1987-02-24 12   17.4   121.5    949    4    86          
1987-02-24 15   17.6   121.5    948    4    86          
1987-02-24 18   17.9   121.4    947    4    87          
1987-02-24 21   18.3   121.1    946    4    87          
1987-02-25 00   18.7   121.0    945    4    89          
1987-02-25 03   19.0   120.9    943    4    89          
1987-02-25 06   19.3   120.8    941    4    91          
1987-02-25 09   19.6   120.8    940    4    93          
1987-02-25 12   20.0   120.9    941    4    91          
1987-02-25 15   20.3   121.0    941    4    91          
1987-02-25 18   20.5   121.0    955    4    80          
1987-02-25 21   20.8   121.0    965    3    70          
1987-02-26 00   21.1   121.2    970    3    66          
1987-02-26 03   21.5   121.4    975    2    60          
1987-02-26 06   21.7   121.6    980    2    54          
1987-02-26 09   22.4   121.6    980    2    54          
1987-02-26 12   22.7   122.1    984    2    49          
1987-02-26 15   23.0   122.5    986    1    47          
1987-02-26 18   23.3   123.1    988    1    45          
1987-02-26 21   23.4   123.3    990    1    41          
1987-02-27 00   23.5   123.5    992    1    39          
1987-02-27 03   23.6   124.5    997         31          
1987-02-27 06   23.8   124.9    998         29          
Winds are 10-min average.

Tropical cyclone tracks developed by Michael Bath using data from the Bureau of Meteorology and Google Maps.


[Australian Severe Weather index] [Copyright Notice] [Email Contacts] [Search This Site] [Privacy Policy]
Document: tropical_cyclone_elsie.htm Updated: 30 May 2013